x

9441102 - Westport, Wa (wptw1) Weather Station

5:36 - Sun 22nd Jan 2017 All times are PST. -8 hours from GMT.

  • Wind
    8mph, 9mph gusts
  • Sea Temp 46°f
  • Luft Temp 42°f
  • Sea Pressure 998.8mb
  • 9441102 - Westport, Wa
  • 9441102 - Westport, Wa

More Historic Weather Station data

Upgrade to MSW Pro to gain access to the past 30 days of data for over 8000 Wavebouys and Weather Stations around the globe.

Join Pro

Comparision Forecast

View Surf forecast
   
So 01/22 5:36 8 9 mph 998.8mb 46f 42f
5:30 7 10 mph 998.8mb 46f 42f
5:24 11 22 mph 999mb 46f 41f
5:18 13 18 mph 999.1mb 46f 42f
5:12 5 7 mph 998.8mb 46f 43f
5:06 5 8 mph 998.6mb 46f 44f
5:00 6 9 mph 998.5mb 46f 44f
4:36 10 16 mph 998.6mb 46f 44f
4:30 11 17 mph 998.6mb 46f 44f
4:24 11 16 mph 998.7mb 46f 44f
4:18 13 16 mph 998.7mb 46f 45f
4:12 7 10 mph 998.6mb 46f 45f
4:06 8 10 mph 998.5mb 46f 46f
4:00 8 13 mph 998.6mb 46f 46f
3:36 7 10 mph 998.6mb 46f 46f
3:30 7 9 mph 998.5mb 46f 46f
3:24 7 9 mph 998.6mb 46f 45f
3:18 8 11 mph 998.6mb 46f 45f
3:12 8 13 mph 998.5mb 46f 44f
3:06 9 14 mph 998.5mb 46f 44f
3:00 9 14 mph 998.6mb 46f 44f
2:36 9 11 mph 998.2mb 46f 45f
2:30 10 14 mph 998.1mb 46f 45f
2:24 8 11 mph 998.1mb 46f 45f
2:18 9 13 mph 998mb 46f 45f
2:12 9 13 mph 998mb 46f 45f
2:06 11 15 mph 998.1mb 46f 45f
2:00 11 17 mph 998.1mb 46f 45f
1:36 15 20 mph 998.1mb 46f 45f
1:30 11 16 mph 998.1mb 46f 45f
1:24 9 14 mph 997.9mb 46f 45f
1:18 9 15 mph 997.8mb 46f 45f
1:12 9 15 mph 998mb 46f 45f
1:06 11 16 mph 998.1mb 46f 44f
1:00 9 17 mph 998.2mb 46f 44f
12:36 15 21 mph 998mb 46f 45f
12:30 11 17 mph 998mb 46f 45f
12:24 14 20 mph 998mb 46f 45f
12:18 9 18 mph 998mb 46f 44f
12:12 14 22 mph 998mb 46f 43f
12:06 18 29 mph 998mb 46f 44f
12:00 11 18 mph 997.8mb 46f 44f
11:36 14 20 mph 997.6mb 47f 44f
11:30 13 17 mph 997.6mb 47f 44f
11:24 11 17 mph 997.9mb 47f 44f
11:18 14 20 mph 998.1mb 47f 43f
11:12 14 18 mph 998mb 47f 44f
11:06 11 17 mph 997.8mb 47f 44f
11:00 10 18 mph 997.7mb 46f 44f
10:36 9 15 mph 997.5mb 47f 44f
10:24  -  mph 997.2mb 47f -
10:18  -  mph 997.2mb 47f -
10:12  -  mph 997.1mb 47f -
10:06  -  mph 996.9mb 47f -
10:00  -  mph 997mb 47f -
9:36 9 13 mph 996.3mb 47f 43f
9:30 10 15 mph 996.4mb 47f 43f
9:24 9 13 mph 996.2mb 47f 43f
9:18 10 16 mph 996mb 47f 43f
9:12 13 16 mph 995.9mb 47f 42f
9:06 11 20 mph 995.9mb 47f 42f
9:00 13 17 mph 995.8mb 47f 42f
8:36 13 16 mph 995.6mb 47f 42f
8:30 11 14 mph 995.4mb 47f 42f
8:24 8 14 mph 995.2mb 47f 41f
8:18 11 18 mph 995.1mb 47f 42f
8:12 16 20 mph 995.2mb 47f 42f
8:06 10 15 mph 995mb 47f 42f
8:00 13 17 mph 994.8mb 47f 42f
7:36 11 14 mph 994.7mb 47f 41f
7:30 8 11 mph 995mb 47f 41f
7:24 9 14 mph 994.7mb 47f 42f
7:18 11 16 mph 994.5mb 46f 42f
7:12 11 18 mph 994.4mb 46f 42f
7:06 13 17 mph 994.3mb 46f 42f
7:00 11 16 mph 994.2mb 46f 42f
6:36 13 16 mph 993.8mb 46f 42f
6:30 13 17 mph 993.9mb 46f 42f
6:24 10 16 mph 993.9mb 46f 42f
6:18 14 20 mph 993.6mb 46f 43f
6:12 14 20 mph 993.4mb 46f 43f
6:06 16 21 mph 993.5mb 46f 42f
6:00 13 21 mph 993.5mb 46f 42f
5:36 18 23 mph 993.6mb 46f 42f
5:30 20 25 mph 993.6mb 46f 42f
5:24 18 28 mph 993.5mb 46f 42f
5:18 20 26 mph 993.4mb 46f 42f
5:12 20 24 mph 993.5mb 46f 42f
5:06 18 26 mph 993.6mb 46f 42f
5:00 16 22 mph 993.7mb 46f 42f
4:36 15 25 mph 994.4mb 46f 42f
4:30 22 28 mph 994.5mb 46f 42f
4:24 15 20 mph 994.6mb 46f 42f
4:18 17 23 mph 994.6mb 46f 42f
4:12 18 23 mph 994.6mb 46f 42f
4:06 21 30 mph 994.3mb 46f 42f
4:00 24 29 mph 994.3mb 46f 42f
3:36 20 28 mph 994.8mb 46f 42f
3:30 25 29 mph 994.7mb 46f 42f
3:24 23 28 mph 994.8mb 46f 42f
3:18 21 28 mph 995.1mb 46f 42f
3:12 23 26 mph 995.3mb 46f 42f
3:06 23 28 mph 995.4mb 46f 42f
3:00 22 29 mph 995.7mb 46f 42f
2:36 22 29 mph 996mb 46f 42f
2:30 23 31 mph 995.9mb 46f 42f
2:24 23 31 mph 996mb 46f 42f
2:18 23 30 mph 995.9mb 46f 42f
2:12 26 33 mph 996.2mb 46f 42f
2:06 23 31 mph 996.3mb 46f 42f
2:00 24 30 mph 996.5mb 46f 42f
1:36 17 22 mph 997.5mb 46f 41f
1:30 16 22 mph 997.7mb 46f 41f
1:24 15 21 mph 997.7mb 46f 41f
1:18 15 21 mph 997.9mb 46f 41f
1:12 15 20 mph 998mb 46f 41f
1:06 15 18 mph 998.2mb 46f 41f
1:00 16 18 mph 998.4mb 46f 41f
12:36 16 21 mph 998.8mb 46f 42f
12:30 14 18 mph 998.9mb 46f 42f
12:24 16 21 mph 999mb 46f 42f
12:18 14 20 mph 999.1mb 46f 42f
12:12 17 21 mph 999.1mb 46f 42f
12:06 14 18 mph 999.2mb 46f 42f
12:00 13 17 mph 999.2mb 46f 42f
Sa 01/21 11:36 11 14 mph 999.5mb 46f 42f
11:30 11 14 mph 999.5mb 46f 42f
11:24 11 14 mph 999.5mb 46f 42f
11:18 10 13 mph 999.5mb 46f 43f
11:12 11 13 mph 999.5mb 46f 43f
11:06 10 13 mph 999.6mb 46f 43f
11:00 9 11 mph 999.7mb 46f 43f
10:36 9 14 mph 999.9mb 46f 43f
10:30 10 14 mph 999.9mb 46f 43f
10:24 10 13 mph 999.9mb 46f 43f
10:18 9 13 mph 1000mb 46f 43f
10:12 9 14 mph 1000mb 46f 43f
10:06 9 13 mph 999.9mb 46f 43f
10:00 9 14 mph 999.9mb 46f 43f
9:36 10 13 mph 999.9mb 46f 42f
9:30 10 13 mph 999.9mb 46f 42f
9:24 10 13 mph 999.9mb 46f 42f
9:18 9 11 mph 999.9mb 46f 42f
9:12 10 13 mph 1000mb 46f 42f
9:06 10 14 mph 1000mb 46f 42f
9:00 10 13 mph 1000mb 46f 42f
8:36 11 13 mph 999.7mb 46f 42f
8:30 9 11 mph 999.7mb 46f 42f
8:24 9 11 mph 999.7mb 46f 42f
8:18 9 13 mph 999.8mb 46f 43f
8:12 10 11 mph 999.7mb 46f 43f
8:06 10 13 mph 999.6mb 46f 43f
8:00 10 13 mph 999.6mb 46f 43f
7:36 9 11 mph 999.4mb 46f 43f
7:30 9 10 mph 999.4mb 46f 43f
7:24 7 9 mph 999.3mb 46f 43f
7:18 8 11 mph 999.3mb 46f 44f
7:12 8 10 mph 999.3mb 46f 44f
7:06 8 10 mph 999.2mb 46f 44f
7:00 9 11 mph 999.1mb 46f 44f
6:36 8 9 mph 998.9mb 46f 44f
6:30 7 9 mph 998.9mb 46f 44f
6:24 7 10 mph 998.8mb 46f 44f
6:18 8 10 mph 998.7mb 46f 44f
6:12 8 10 mph 998.5mb 46f 44f
6:06 8 11 mph 998.5mb 46f 44f
6:00 8 13 mph 998.4mb 46f 44f
5:54 9 13 mph 998.3mb 46f 44f
5:48 7 11 mph 998.2mb 46f 44f
5:36 7 10 mph 998mb 46f 44f
5:30 6 8 mph 997.9mb 46f 44f
5:24 7 9 mph 997.7mb 46f 45f
5:18 5 8 mph 997.7mb 46f 45f
5:12 6 9 mph 997.6mb 46f 45f
5:06 5 9 mph 997.6mb 46f 45f
5:00 8 10 mph 997.6mb 46f 45f
4:54 6 9 mph 997.4mb 46f 45f
4:48 7 11 mph 997.3mb 46f 45f
4:36 7 10 mph 997.1mb 46f 45f
4:30 9 13 mph 997mb 46f 45f
4:24 8 13 mph 996.9mb 46f 45f
4:18 8 13 mph 996.8mb 46f 45f
4:12 8 14 mph 996.7mb 46f 46f
4:06 10 15 mph 996.7mb 46f 46f
4:00 9 13 mph 996.6mb 46f 46f
3:54 9 13 mph 996.5mb 46f 46f
3:48 8 14 mph 996.5mb 46f 46f
3:36 9 13 mph 996.4mb 46f 46f
3:30 7 11 mph 996.3mb 46f 46f
3:24 9 14 mph 996.2mb 46f 46f
3:18 10 14 mph 996mb 46f 46f
3:12 9 13 mph 995.9mb 46f 47f
3:06 9 14 mph 995.8mb 46f 47f
3:00 6 14 mph 995.7mb 46f 48f
2:54 11 15 mph 995.6mb 46f 47f
2:48 7 10 mph 995.5mb 46f 48f
2:36 8 10 mph 995.3mb 46f 48f
2:30 8 11 mph 995.2mb 46f 47f
2:24 6 8 mph 995.1mb 46f 47f
2:18 6 8 mph 995mb 46f 47f
2:12 6 9 mph 994.9mb 46f 47f
2:06 7 10 mph 994.8mb 46f 47f
2:00 7 9 mph 994.8mb 46f 47f
1:54 6 8 mph 994.6mb 46f 47f
1:48 3 6 mph 994.6mb 46f 47f
1:36 3 6 mph 994.5mb 46f 48f
1:30 6 8 mph 994.4mb 46f 48f
1:24 6 8 mph 994.4mb 46f 48f
1:18 6 9 mph 994.3mb 46f 48f
1:12 8 11 mph 994.2mb 46f 48f
1:06 8 11 mph 994.1mb 46f 48f
1:00 8 10 mph 994.1mb 46f 48f
12:54 9 13 mph 994.1mb 46f 48f
12:48 8 14 mph 994mb 46f 48f
12:36 7 13 mph 994mb 46f 48f
12:30 8 13 mph 993.9mb 46f 48f
12:24 8 11 mph 993.8mb 46f 48f
12:18 9 15 mph 993.7mb 46f 48f
12:12 7 13 mph 993.7mb 46f 48f
12:06 9 16 mph 993.7mb 46f 48f
12:00 7 10 mph 993.7mb 46f 49f
11:54 8 13 mph 993.6mb 46f 49f
11:48 7 11 mph 993.6mb 46f 49f
11:36 8 13 mph 993.5mb 47f 48f
11:30 7 11 mph 993.6mb 46f 48f
11:24 6 11 mph 993.5mb 46f 49f
11:18 7 11 mph 993.5mb 46f 48f
11:12 8 14 mph 993.5mb 47f 47f
11:06 8 11 mph 993.4mb 47f 48f
11:00 8 10 mph 993.3mb 47f 47f
10:54 9 13 mph 993.3mb 47f 46f
10:48 9 13 mph 993.3mb 47f 46f
10:36 10 13 mph 993.2mb 47f 45f
10:30 7 11 mph 993.2mb 47f 45f
10:24 11 13 mph 993.1mb 47f 43f
10:18 9 11 mph 993.1mb 47f 43f
10:12 10 11 mph 993mb 47f 43f
10:06 9 10 mph 992.9mb 47f 42f
10:00 9 10 mph 992.9mb 47f 42f
9:54 7 9 mph 992.9mb 47f 42f
9:48 7 9 mph 992.8mb 47f 42f
9:36 10 11 mph 992.7mb 47f 41f
9:30 10 11 mph 992.6mb 47f 41f
9:24 7 9 mph 992.5mb 47f 41f
9:18 8 10 mph 992.4mb 47f 41f
9:12 10 11 mph 992.3mb 47f 41f
9:06 9 11 mph 992.2mb 47f 41f
9:00 8 11 mph 992.1mb 46f 41f
8:54 9 11 mph 992.1mb 47f 41f
8:48 9 11 mph 992mb 47f 41f
8:36 8 11 mph 991.9mb 47f 41f
8:30 9 11 mph 991.8mb 47f 41f
8:24 10 13 mph 991.7mb 47f 41f
8:18 9 10 mph 991.6mb 47f 41f
8:12 9 11 mph 991.5mb 47f 41f
8:06 10 13 mph 991.4mb 47f 41f
8:00 10 11 mph 991.3mb 47f 41f
7:54 10 11 mph 991.2mb 47f 41f
7:48 9 10 mph 991.1mb 47f 41f
7:36 9 10 mph 990.9mb 47f 41f
7:30 10 13 mph 990.9mb 47f 41f
7:24 10 11 mph 990.8mb 47f 41f
7:18 11 14 mph 990.8mb 47f 41f
7:12 10 14 mph 990.7mb 47f 41f
7:06 13 14 mph 990.6mb 47f 41f
7:00 11 14 mph 990.5mb 47f 41f
6:54 10 14 mph 990.5mb 47f 41f
6:48 11 14 mph 990.4mb 47f 41f
6:36 10 13 mph 990.3mb 47f 41f
6:30 10 11 mph 990.2mb 47f 41f
6:24 10 11 mph 990.1mb 47f 41f
6:18 8 10 mph 990.1mb 47f 41f
6:12 8 9 mph 990.1mb 47f 41f
6:06 7 8 mph 990.1mb 47f 40f
6:00 7 8 mph 990mb 47f 40f
5:54 7 9 mph 989.9mb 46f 40f
5:48 8 10 mph 989.9mb 46f 41f
5:36 9 11 mph 989.7mb 46f 41f
5:30 11 14 mph 989.7mb 46f 41f
5:24 11 14 mph 989.6mb 46f 41f
5:18 10 13 mph 989.6mb 46f 41f
5:12 11 15 mph 989.5mb 46f 40f
5:06 13 15 mph 989.5mb 46f 40f
5:00 11 14 mph 989.5mb 46f 40f
4:54 13 14 mph 989.5mb 46f 40f
4:48 11 14 mph 989.4mb 46f 40f
4:36 10 13 mph 989.4mb 46f 40f
4:30 10 13 mph 989.3mb 46f 40f
4:24 11 13 mph 989.3mb 46f 40f
4:18 10 11 mph 989.3mb 46f 40f
4:12 11 14 mph 989.2mb 46f 40f
4:06 11 14 mph 989.3mb 46f 40f
4:00 11 14 mph 989.2mb 46f 40f
3:54 11 14 mph 989.2mb 46f 40f
3:48 11 13 mph 989.2mb 46f 40f
3:36 11 13 mph 989.2mb 46f 40f
3:30 11 13 mph 989.1mb 46f 41f
3:24 11
mph
989.1mb 46f 41f
3:18 10 11 mph 989.1mb 46f 41f
3:12 10 11 mph 989.1mb 46f 41f
3:06 11 13 mph 989.1mb 46f 41f
3:00 11 13 mph 989mb 46f 42f
2:54 11 13 mph 988.9mb 46f 41f
2:48 11 13 mph 988.9mb 46f 41f
2:36 10 13 mph 988.9mb 46f 42f
2:30 10 13 mph 988.9mb 46f 42f
2:24 10 13 mph 988.9mb 46f 41f
2:18 10 11 mph 988.8mb 46f 42f
2:12 10 11 mph 988.7mb 46f 42f
2:06 8 9 mph 988.7mb 46f 42f
2:00 9 11 mph 988.6mb 46f 42f
1:54 9 11 mph 988.6mb 46f 41f
1:48 8 11 mph 988.5mb 46f 41f
1:36 9 10 mph 988.4mb 46f 41f
1:30 9 11 mph 988.3mb 46f 41f
1:24 9 10 mph 988.3mb 46f 41f
1:18 9 10 mph 988.2mb 46f 41f
1:12 10 11 mph 988.2mb 46f 41f
1:06 9 11 mph 988.1mb 46f 41f
1:00 9 13 mph 988.1mb 46f 41f
12:54 9 11 mph 988.2mb 46f 41f
12:48 7 11 mph 988mb 46f 42f
12:36 9 10 mph 987.9mb 46f 42f
12:30 9 11 mph 987.9mb 46f 42f
12:24 9 10 mph 987.9mb 46f 41f
12:18 9 11 mph 987.8mb 46f 41f
12:12 10 11 mph 987.7mb 46f 41f
12:06 11 13 mph 987.7mb 46f 41f
12:00 11 13 mph 987.7mb 46f 41f
Fr 01/20 11:54 11 13 mph 987.7mb 46f 42f
11:48 10 13 mph 987.7mb 46f 42f
11:36 10 11 mph 987.6mb 46f 41f
11:30 9 11 mph 987.5mb 46f 42f
11:24 11 13 mph 987.5mb 46f 42f
11:18 10 11 mph 987.5mb 46f 42f
11:12 10 13 mph 987.5mb 46f 42f
11:06 11 13 mph 987.4mb 46f 42f
11:00 10 11 mph 987.3mb 46f 42f
10:54 11 13 mph 987.3mb 46f 42f
10:48 11 13 mph 987.3mb 46f 42f
10:36 10 13 mph 987.1mb 46f 42f
10:30 10 11 mph 987.1mb 46f 42f
10:24 10 13 mph 987.1mb 46f 42f
10:18 10 13 mph 987.1mb 46f 42f
10:12 9 11 mph 987.1mb 46f 42f
10:06 9 11 mph 987.1mb 46f 42f
10:00 10 13 mph 987mb 46f 42f
9:54 10 13 mph 986.9mb 46f 42f
9:48 9 11 mph 986.9mb 46f 42f
9:36 10 13 mph 986.9mb 46f 42f
9:30 10 13 mph 986.9mb 46f 42f
9:24 11 13 mph 986.9mb 46f 42f
9:18 10 13 mph 986.8mb 46f 42f
9:12 13 14 mph 986.8mb 46f 42f
9:06 11 14 mph 986.8mb 46f 42f
9:00 11 14 mph 986.7mb 46f 42f
8:54 11 14 mph 986.7mb 46f 42f
8:48 9 13 mph 986.6mb 46f 42f
8:36 10 11 mph 986.5mb 46f 42f
8:30 8 11 mph 986.4mb 46f 42f
8:24 10 13 mph 986.4mb 46f 42f
8:18 10 13 mph 986.3mb 46f 42f
8:12 11 13 mph 986.2mb 46f 42f
8:06 11 14 mph 986.2mb 46f 42f
8:00 11 14 mph 986.1mb 46f 42f
7:54 13 15 mph 986.1mb 46f 42f
7:48 13 16 mph 986.1mb 46f 42f
7:36 11 15 mph 986.1mb 46f 42f
7:30 10 15 mph 986.1mb 46f 42f
7:24 9 14 mph 986mb 46f 43f
7:18 10 13 mph 985.9mb 46f 43f
7:12 10 13 mph 985.8mb 46f 43f
7:06 10 14 mph 985.7mb 46f 43f
7:00 11 14 mph 985.7mb 46f 43f
6:54 10 13 mph 985.7mb 46f 43f
6:48 10 14 mph 985.6mb 46f 43f
6:36 11 15 mph 985.6mb 46f 43f
6:30 9 14 mph 985.5mb 46f 43f
6:24 10 14 mph 985.5mb 46f 43f
6:18 10 16 mph 985.5mb 46f 43f
6:12 14 16 mph 985.5mb 46f 43f
6:06 14 18 mph 985.4mb 46f 43f
6:00 11 15 mph 985.3mb 46f 43f
5:54 13 16 mph 985.2mb 46f 43f
5:48 13 16 mph 985.1mb 46f 43f
5:36 14 17 mph 985.1mb 46f 43f
5:30 13 15 mph 985mb 46f 43f
5:24 11 15 mph 985mb 46f 43f
5:18 13 16 mph 984.9mb 46f 43f
5:12 11 16 mph 984.9mb 46f 43f
5:06 11 15 mph 984.9mb 46f 44f
5:00 11 15 mph 984.8mb 46f 44f
4:54 14 16 mph 984.8mb 46f 44f
4:48 13 16 mph 984.8mb 46f 44f
4:36 13 16 mph 984.7mb 46f 44f
4:30 13 16 mph 984.7mb 46f 44f
4:24 11 15 mph 984.7mb 46f 44f
4:18 11 15 mph 984.7mb 46f 44f
4:12 10 16 mph 984.7mb 46f 44f
4:06 10 14 mph 984.7mb 46f 45f
4:00 11 15 mph 984.6mb 46f 44f
3:54 11 15 mph 984.5mb 46f 45f
3:48 13 17 mph 984.5mb 46f 45f
3:36 11 15 mph 984.4mb 46f 45f
3:30 13 16 mph 984.3mb 46f 46f
3:24 10 15 mph 984.3mb 46f 46f
3:18 11 14 mph 984.3mb 46f 46f
3:12 10 14 mph 984.2mb 46f 46f
3:06 9 13 mph 984.1mb 46f 46f
3:00 10 14 mph 984.1mb 46f 45f
2:54 11 14 mph 984.1mb 46f 45f
2:48 11 14 mph 984mb 46f 45f
2:36 11 15 mph 984mb 46f 45f
2:30 11 15 mph 984mb 46f 45f
2:24 10 14 mph 983.9mb 46f 45f
2:18 9 11 mph 983.9mb 46f 45f
2:12 8 11 mph 983.9mb 46f 46f
2:06 10 13 mph 983.9mb 46f 46f
2:00 10 14 mph 983.8mb 46f 46f
1:54 10 13 mph 983.8mb 46f 46f
1:48 9 13 mph 983.7mb 46f 45f
1:36 9 13 mph 983.7mb 46f 45f
1:30 11 14 mph 983.7mb 46f 45f
1:24 14 15 mph 983.7mb 46f 45f
1:18 13 14 mph 983.7mb 46f 45f
1:12 13 15 mph 983.7mb 46f 45f
1:06 11 14 mph 983.7mb 46f 45f
1:00 11 15 mph 983.7mb 46f 44f
12:54 11 15 mph 983.7mb 46f 44f
12:48 11 15 mph 983.7mb 46f 44f
12:36 11 15 mph 983.9mb 46f 44f
12:30 10 16 mph 983.9mb 46f 44f
12:24 13 16 mph 983.9mb 46f 44f
12:18 14 16 mph 984mb 46f 44f
12:12 11 15 mph 984mb 46f 44f
12:06 13 17 mph 984mb 46f 44f
12:00 15 17 mph 984mb 46f 44f
11:54 14 17 mph 984.1mb 46f 43f
11:48 14 18 mph 984.1mb 46f 43f
11:36 15 21 mph 984.2mb 46f 44f
11:30 14 17 mph 984.2mb 46f 43f
11:24 11 16 mph 984.3mb 46f 43f
11:18 10 15 mph 984.3mb 46f 43f
11:12 11 14 mph 984.3mb 46f 44f
11:06 8 11 mph 984.4mb 46f 43f
11:00 9 13 mph 984.4mb 46f 43f
10:54 7 9 mph 984.4mb 46f 43f
10:48 7 9 mph 984.4mb 47f 43f
10:36 9 15 mph 984.4mb 47f 43f
10:30 11 17 mph 984.3mb 47f 43f
10:24 14 18 mph 984.2mb 47f 43f
10:18 14 18 mph 984.3mb 47f 43f
10:12 13 20 mph 984.3mb 46f 43f
10:06 14 21 mph 984.4mb 46f 42f
10:00 16 22 mph 984.4mb 47f 42f
9:54 18 21 mph 984.4mb 47f 42f
9:48 15 20 mph 984.5mb 47f 42f
9:36 14 18 mph 984.6mb 47f 42f
9:30 14 17 mph 984.6mb 47f 42f
9:24 10 14 mph 984.7mb 47f 43f
9:18 11 15 mph 984.6mb 47f 43f
9:12 10 15 mph 984.6mb 47f 43f
9:06 9 13 mph 984.6mb 47f 42f
9:00 11 15 mph 984.7mb 47f 43f
8:54 14 18 mph 984.6mb 47f 43f
8:48 13 16 mph 984.6mb 47f 43f
8:36 11 15 mph 984.6mb 47f 42f
8:30 13 16 mph 984.6mb 47f 43f
8:24 13 15 mph 984.7mb 47f 43f
8:18 10 15 mph 984.7mb 47f 43f
8:12 11 17 mph 984.7mb 47f 43f
8:06 15 20 mph 984.7mb 47f 43f
8:00 14 21 mph 984.7mb 47f 43f
7:54 15 21 mph 984.8mb 47f 43f
7:48 13 20 mph 984.8mb 47f 43f
7:36 18 25 mph 984.8mb 47f 44f
7:30 22 28 mph 984.8mb 47f 44f
7:24 21 25 mph 984.9mb 47f 44f
7:18 24 28 mph 985mb 47f 44f
7:12 20 26 mph 985.1mb 47f 44f
7:06 21 24 mph 985.2mb 47f 44f
7:00 18 23 mph 985.3mb 47f 44f
6:54 17 23 mph 985.3mb 47f 44f
6:48 22 28 mph 985.4mb 47f 44f
6:36 23 30 mph 985.6mb 47f 44f
6:30 21 26 mph 985.6mb 47f 44f
6:24 17 25 mph 985.7mb 48f 44f
6:18 17 23 mph 985.7mb 48f 43f
6:12 18 26 mph 985.8mb 48f 43f
6:06 18 24 mph 985.9mb 47f 43f
6:00 16 21 mph 986mb 47f 43f
5:54 16 24 mph 986.2mb 47f 43f
5:48 20 25 mph 986.4mb 47f 43f
5:36 20 28 mph 986.5mb 47f 43f
5:30 18 25 mph 986.6mb 47f 43f
5:24 21 29 mph 986.7mb 47f 43f
5:18 24 30 mph 986.8mb 47f 43f
5:12 22 28 mph 986.9mb 47f 43f
5:06 23 30 mph 987.1mb 47f 43f
5:00 24 29 mph 987.1mb 47f 43f
4:54 23 29 mph 987.3mb 47f 43f
4:48 21 25 mph 987.4mb 47f 43f
4:36 21 25 mph 987.7mb 46f 43f
4:30 21 24 mph 987.8mb 46f 43f
4:24 20 24 mph 988mb 46f 43f
4:18 23 26 mph 988.2mb 46f 43f
4:12 17 24 mph 988.4mb 46f 43f
4:06 17 24 mph 988.5mb 46f 43f
4:00 22 26 mph 988.6mb 46f 43f
3:54 20 24 mph 988.8mb 46f 43f
3:48 21 25 mph 988.9mb 46f 43f
3:36 21 26 mph 989.1mb 46f 43f
3:30 20 24 mph 989.2mb 47f 43f
3:24 16 21 mph 989.3mb 47f 43f
3:18 15 22 mph 989.4mb 47f 43f
3:12 20 24 mph 989.6mb 47f 43f
3:06 17 22 mph 989.8mb 46f 43f
3:00 17 23 mph 990mb 46f 43f
2:54 17 22 mph 990.1mb 46f 43f
2:48 15 20 mph 990.2mb 46f 43f
2:36 14 20 mph 990.5mb 46f 42f
2:30 14 21 mph 990.7mb 46f 42f
2:24 15 20 mph 990.8mb 46f 43f
2:18 15 20 mph 990.9mb 46f 43f
2:12 16 22 mph 991mb 46f 43f
2:06 17 21 mph 991.1mb 46f 43f
2:00 16 21 mph 991.2mb 47f 43f
1:54 11 16 mph 991.3mb 47f 42f
1:48 13 17 mph 991.4mb 47f 43f
1:36 15 20 mph 991.7mb 47f 43f
1:30 14 18 mph 991.8mb 47f 43f
1:24 14 16 mph 992mb 47f 43f
1:18 13 15 mph 992.1mb 47f 43f
1:12 11 14 mph 992.3mb 47f 43f
1:06 11 14 mph 992.4mb 47f 43f
1:00 11 15 mph 992.5mb 47f 43f
12:54 10 13 mph 992.6mb 47f 43f
12:48 8 13 mph 992.7mb 47f 43f
12:36 10 14 mph 992.9mb 46f 43f
12:30 9 14 mph 993mb 47f 43f
12:24 11 14 mph 993.1mb 47f 43f
12:18 10 14 mph 993.3mb 47f 43f
12:12 10 13 mph 993.4mb 47f 43f
12:06 11 14 mph 993.5mb 47f 43f
12:00 10 15 mph 993.6mb 47f 43f
Do 01/19 11:54 10 14 mph 993.7mb 47f 43f
11:48 9 14 mph 993.8mb 47f 43f
11:36 14 17 mph 994.1mb 47f 43f
11:30 11 14 mph 994.3mb 47f 43f
11:24 13 16 mph 994.4mb 47f 44f
11:18 10 15 mph 994.5mb 47f 43f
11:12 14 16 mph 994.6mb 47f 44f
11:06 11 15 mph 994.7mb 47f 44f
11:00 11 15 mph 994.8mb 47f 44f
10:54 11 13 mph 994.8mb 47f 44f
10:48 9 13 mph 994.9mb 47f 44f
10:36 9 14 mph 995.1mb 47f 44f
10:30 11 15 mph 995.2mb 47f 44f
10:24 11 14 mph 995.3mb 47f 44f
10:18 11 15 mph 995.4mb 47f 44f
10:12 10 15 mph 995.5mb 47f 44f
10:06 11 15 mph 995.5mb 47f 44f
10:00 10 14 mph 995.6mb 47f 44f
9:54 10 16 mph 995.7mb 47f 44f
9:48 11 14 mph 995.9mb 47f 44f
9:36 13 17 mph 996.1mb 47f 44f
9:30 10 15 mph 996mb 47f 44f
9:24 11 16 mph 996.1mb 47f 44f
9:18 9 14 mph 996.1mb 47f 44f
9:12 8 13 mph 996.1mb 47f 44f
9:06 8 14 mph 996.3mb 47f 44f
9:00 10 16 mph 996.3mb 47f 44f
8:54 10 15 mph 996.3mb 47f 44f
8:48 11 16 mph 996.3mb 47f 44f
8:36 11 17 mph 996.4mb 47f 44f
8:30 9 16 mph 996.4mb 47f 44f
8:24 10 17 mph 996.4mb 47f 44f
8:18 10 14 mph 996.5mb 47f 44f
8:12 10 16 mph 996.6mb 47f 45f
8:06 8 16 mph 996.6mb 47f 45f
8:00 11 18 mph 996.8mb 47f 45f
7:54 11 17 mph 996.8mb 47f 45f
7:48 10 17 mph 996.8mb 47f 45f
7:36 10 17 mph 996.9mb 47f 45f
7:30 13 17 mph 997mb 47f 46f
7:24 11 17 mph 997mb 47f 46f
7:18 11 18 mph 997mb 47f 46f
7:12 14 22 mph 997.1mb 47f 45f
7:06 15 28 mph 997.2mb 47f 45f
7:00 16 25 mph 997mb 47f 47f
6:54 10 15 mph 997.1mb 47f 47f
6:48 11 15 mph 997.2mb 47f 46f
6:36 13 18 mph 997.3mb 47f 46f
6:30 15 20 mph 997.2mb 47f 46f
6:24 16 24 mph 997.3mb 47f 46f
6:18 20 25 mph 997.4mb 47f 46f
6:12 17 22 mph 997.4mb 47f 46f
6:06 18 28 mph 997.5mb 47f 45f
6:00 15 22 mph 997.5mb 47f 46f
5:54 13 16 mph 997.6mb 47f 46f
5:48 14 21 mph 997.6mb 47f 46f
5:36 14 21 mph 997.7mb 47f 46f
5:30 14 23 mph 997.6mb 47f 46f
5:24 16 24 mph 997.6mb 47f 46f
5:18 16 24 mph 997.6mb 47f 46f
5:12 20 25 mph 997.6mb 47f 46f
5:06 20 28 mph - - 46f
5:00 22 29 mph 997.6mb 47f 46f
4:54 21 29 mph 997.6mb 47f 46f
4:48 20 28 mph 997.6mb 47f 46f
4:36 21 25 mph 997.6mb 47f 46f
4:30 20 26 mph 997.6mb 47f 46f
4:24 21 29 mph 997.6mb 47f 46f
4:18 23 30 mph 997.5mb 47f 46f
4:12 21 28 mph 997.5mb 47f 46f
4:06 20 31 mph 997.5mb 47f 45f
4:00 24 31 mph 997.5mb 47f 46f
3:54 21 32 mph 997.4mb 47f 46f
3:48 20 26 mph 997.5mb 47f 46f
3:36 20 28 mph 997.4mb 47f 46f
3:30 21 26 mph 997.3mb 47f 46f
3:24 18 28 mph 997.3mb 47f 46f
3:18 20 28 mph 997.4mb 47f 46f
3:12 22 33 mph 997.3mb 47f 46f
3:06 18 24 mph 997.3mb 47f 46f
3:00 16 26 mph 997.4mb 47f 46f
2:54 22 28 mph 997.3mb 47f 46f
2:48 18 28 mph 997.3mb 47f 46f
2:36 18 26 mph 997.3mb 47f 46f
2:30 18 26 mph 997.3mb 47f 46f
2:24 21 29 mph 997.3mb 47f 46f
2:18 25 31 mph 997.3mb 47f 46f
2:12 16 23 mph 997.2mb 47f 46f
2:06 18 26 mph 997.3mb 47f 46f
2:00 20 24 mph 997.4mb 47f 46f
1:54 16 23 mph 997.4mb 47f 46f
1:48 20 26 mph 997.5mb 47f 46f
1:36 20 28 mph 997.5mb 47f 45f
1:30 21 26 mph 997.5mb 47f 46f
1:24 20 26 mph 997.5mb 47f 46f
1:18 16 23 mph 997.5mb 47f 46f
1:12 18 26 mph 997.6mb 47f 46f
1:06 16 21 mph 997.7mb 47f 47f
1:00 16 23 mph 997.7mb 47f 47f
12:54 17 22 mph 997.8mb 47f 47f
12:48 15 21 mph 997.8mb 47f 47f
12:36 13 18 mph 997.9mb 47f 47f
12:30 15 21 mph 998mb 47f 47f
12:24 16 21 mph 998.1mb 47f 47f
12:18 16 23 mph 998.1mb 47f 47f
12:12 11 18 mph 998.1mb 47f 47f
12:06 14 20 mph 998.2mb 47f 47f
12:00 15 20 mph 998.1mb 47f 47f
11:54 17 22 mph 998.2mb 47f 47f
11:48 13 18 mph 998.2mb 47f 47f
11:36 11 17 mph 998.3mb 47f 47f
11:30 14 18 mph 998.3mb 47f 47f
11:24 15 22 mph 998.4mb 47f 47f
11:18 16 23 mph 998.5mb 47f 47f
11:12 14 21 mph 998.5mb 47f 47f
11:06 14 18 mph 998.5mb 47f 47f
11:00 14 20 mph 998.5mb 47f 48f
10:54 15 21 mph 998.5mb 47f 47f
10:48 16 23 mph 998.6mb 47f 47f
10:36 16 21 mph 998.5mb 47f 47f
10:30 14 17 mph 998.4mb 47f 48f
10:24 14 20 mph 998.4mb 47f 48f
10:18 16 22 mph 998.4mb 47f 48f
10:12 15 22 mph 998.4mb 47f 48f
10:06 17 23 mph 998.3mb 47f 48f
10:00 18 23 mph 998.2mb 47f 48f
9:54 17 22 mph 998.2mb 47f 47f
9:48 18 25 mph 998.2mb 47f 47f
9:36 20 25 mph 998.2mb 47f 47f
9:30 17 25 mph 998.1mb 47f 47f
9:24 17 22 mph 998.1mb 47f 47f
9:18 18 23 mph 998mb 47f 47f
9:12 16 26 mph 998mb 47f 46f
9:06 23 30 mph 998mb 47f 46f
9:00 20 26 mph 997.8mb 47f 47f
8:54 18 25 mph 997.7mb 47f 48f
8:48 17 24 mph 997.6mb 47f 48f
8:36 15 21 mph 997.5mb 47f 47f
8:30 17 25 mph 997.4mb 47f 47f
8:24 20 25 mph 997.4mb 47f 47f
8:18 17 23 mph 997.2mb 47f 47f
8:12 18 25 mph 997.1mb 47f 47f
8:06 16 22 mph 997.1mb 47f 47f
8:00 18 24 mph 997.1mb 47f 46f
7:54 20 23 mph 997.1mb 47f 46f
7:48 18 24 mph 997mb 47f 47f
7:36 21 26 mph 996.9mb 47f 46f
7:30 20 25 mph 996.8mb 48f 47f
7:24 17 24 mph 996.7mb 48f 47f
7:18 14 20 mph 996.7mb 48f 47f
7:12 17 24 mph 996.7mb 48f 47f
7:06 20 25 mph 996.6mb 48f 47f
7:00 20 24 mph 996.6mb 48f 47f
6:54 18 24 mph 996.6mb 48f 47f
6:48 21 25 mph 996.5mb 48f 46f
6:36 17 21 mph 996.4mb 48f 47f
6:30 18 25 mph 996.4mb 48f 47f
6:24 20 26 mph 996.3mb 48f 47f
6:18 20 26 mph 996.3mb 48f 47f
6:12 25 32 mph 996.2mb 48f 47f
6:06 21 29 mph 996mb 48f 47f
6:00 17 25 mph 996mb 48f 47f
5:54 13 20 mph 996.1mb 48f 47f
5:48 13 22 mph 996mb 48f 47f
5:36 16 24 mph 996.2mb 48f 47f
5:30 14 23 mph 996.1mb 48f 47f
5:24 15 23 mph 996.1mb 47f 47f
5:18 16 22 mph 996mb 47f 47f
5:12 14 25 mph 996mb 47f 47f
5:06 15 22 mph 996mb 47f 47f
5:00 15 22 mph 996mb 47f 47f
4:54 15 23 mph 996.1mb 47f 47f
4:48 18 25 mph 996.1mb 47f 47f
4:36 20 25 mph 996mb 47f 47f
4:30 15 22 mph 996mb 47f 47f
4:24 15 26 mph 996mb 47f 47f
4:18 13 18 mph 996mb 47f 47f
4:12 13 21 mph 996mb 47f 47f
4:06 16 24 mph 996mb 47f 47f
4:00 15 22 mph 996mb 47f 47f
3:54 17 24 mph 995.9mb 47f 48f
3:48 18 28 mph 995.8mb 47f 48f
3:36 16 23 mph 995.7mb 47f 48f
3:30 20 26 mph 995.7mb 47f 48f
3:24 20 26 mph 995.7mb 47f 48f
3:18 18 30 mph 995.7mb 47f 48f
3:12 22 29 mph 995.8mb 47f 48f
3:06 20 28 mph 995.8mb 47f 48f
3:00 16 22 mph 995.8mb 47f 47f
2:54 18 29 mph 995.9mb 47f 47f
2:48 20 28 mph 995.9mb 47f 47f